sensor_id;sensor_type;location;lat;lon;timestamp;P1;durP1;ratioP1;P2;durP2;ratioP2
54171;SDS011;40076;52.354;4.970;2023-05-07T00:01:36;36.97;;;32.60;;
54171;SDS011;40076;52.354;4.970;2023-05-07T00:04:05;41.60;;;34.05;;
54171;SDS011;40076;52.354;4.970;2023-05-07T00:06:32;43.60;;;34.75;;
54171;SDS011;40076;52.354;4.970;2023-05-07T00:09:00;46.42;;;35.95;;
54171;SDS011;40076;52.354;4.970;2023-05-07T00:11:29;47.22;;;37.08;;
54171;SDS011;40076;52.354;4.970;2023-05-07T00:14:02;47.25;;;38.38;;
54171;SDS011;40076;52.354;4.970;2023-05-07T00:19:22;49.22;;;37.67;;
54171;SDS011;40076;52.354;4.970;2023-05-07T00:22:09;47.40;;;38.35;;
54171;SDS011;40076;52.354;4.970;2023-05-07T00:24:58;56.42;;;40.72;;
54171;SDS011;40076;52.354;4.970;2023-05-07T00:27:48;54.17;;;40.85;;
54171;SDS011;40076;52.354;4.970;2023-05-07T00:30:14;52.90;;;39.65;;
54171;SDS011;40076;52.354;4.970;2023-05-07T00:32:55;54.65;;;41.08;;
54171;SDS011;40076;52.354;4.970;2023-05-07T00:35:49;51.28;;;39.78;;
54171;SDS011;40076;52.354;4.970;2023-05-07T00:38:33;51.13;;;39.55;;
54171;SDS011;40076;52.354;4.970;2023-05-07T00:40:58;59.35;;;42.38;;
54171;SDS011;40076;52.354;4.970;2023-05-07T00:43:31;54.78;;;41.45;;
54171;SDS011;40076;52.354;4.970;2023-05-07T00:46:03;59.13;;;42.55;;
54171;SDS011;40076;52.354;4.970;2023-05-07T00:48:33;56.22;;;41.72;;
54171;SDS011;40076;52.354;4.970;2023-05-07T00:51:06;57.38;;;41.75;;
54171;SDS011;40076;52.354;4.970;2023-05-07T00:53:42;53.53;;;40.80;;
54171;SDS011;40076;52.354;4.970;2023-05-07T00:56:08;53.38;;;41.25;;
54171;SDS011;40076;52.354;4.970;2023-05-07T00:58:40;52.85;;;40.47;;
54171;SDS011;40076;52.354;4.970;2023-05-07T01:03:44;53.10;;;40.85;;
54171;SDS011;40076;52.354;4.970;2023-05-07T01:06:13;54.15;;;40.63;;
54171;SDS011;40076;52.354;4.970;2023-05-07T01:08:44;54.67;;;39.97;;
54171;SDS011;40076;52.354;4.970;2023-05-07T01:11:13;57.22;;;40.97;;
54171;SDS011;40076;52.354;4.970;2023-05-07T01:13:46;56.35;;;40.35;;
54171;SDS011;40076;52.354;4.970;2023-05-07T01:16:19;57.03;;;41.10;;
54171;SDS011;40076;52.354;4.970;2023-05-07T01:18:49;56.30;;;40.75;;
54171;SDS011;40076;52.354;4.970;2023-05-07T01:21:15;50.83;;;38.28;;
54171;SDS011;40076;52.354;4.970;2023-05-07T01:23:53;50.90;;;37.65;;
54171;SDS011;40076;52.354;4.970;2023-05-07T01:26:22;49.50;;;38.78;;
54171;SDS011;40076;52.354;4.970;2023-05-07T01:28:53;51.20;;;37.90;;
54171;SDS011;40076;52.354;4.970;2023-05-07T01:31:24;50.88;;;37.05;;
54171;SDS011;40076;52.354;4.970;2023-05-07T01:33:55;44.25;;;35.20;;
54171;SDS011;40076;52.354;4.970;2023-05-07T01:36:28;45.63;;;36.25;;
54171;SDS011;40076;52.354;4.970;2023-05-07T01:38:55;44.70;;;36.40;;
54171;SDS011;40076;52.354;4.970;2023-05-07T01:41:22;45.88;;;35.60;;
54171;SDS011;40076;52.354;4.970;2023-05-07T01:43:54;46.78;;;37.22;;
54171;SDS011;40076;52.354;4.970;2023-05-07T01:46:20;45.40;;;34.78;;
54171;SDS011;40076;52.354;4.970;2023-05-07T01:48:46;39.95;;;31.38;;
54171;SDS011;40076;52.354;4.970;2023-05-07T01:51:12;47.25;;;35.45;;
54171;SDS011;40076;52.354;4.970;2023-05-07T01:53:41;41.58;;;32.88;;
54171;SDS011;40076;52.354;4.970;2023-05-07T01:56:08;39.03;;;33.30;;
54171;SDS011;40076;52.354;4.970;2023-05-07T01:58:42;38.55;;;31.58;;
54171;SDS011;40076;52.354;4.970;2023-05-07T02:01:07;37.88;;;29.80;;
54171;SDS011;40076;52.354;4.970;2023-05-07T02:03:33;35.38;;;30.27;;
54171;SDS011;40076;52.354;4.970;2023-05-07T02:06:01;33.90;;;28.90;;
54171;SDS011;40076;52.354;4.970;2023-05-07T02:08:29;37.13;;;31.02;;
54171;SDS011;40076;52.354;4.970;2023-05-07T02:11:00;33.35;;;28.95;;
54171;SDS011;40076;52.354;4.970;2023-05-07T02:13:35;32.80;;;27.42;;
54171;SDS011;40076;52.354;4.970;2023-05-07T02:16:03;31.60;;;26.33;;
54171;SDS011;40076;52.354;4.970;2023-05-07T02:18:29;32.67;;;26.08;;
54171;SDS011;40076;52.354;4.970;2023-05-07T02:20:55;32.58;;;27.52;;
54171;SDS011;40076;52.354;4.970;2023-05-07T02:23:21;31.08;;;26.02;;
54171;SDS011;40076;52.354;4.970;2023-05-07T02:25:49;27.17;;;23.80;;
54171;SDS011;40076;52.354;4.970;2023-05-07T02:28:16;25.45;;;22.77;;
54171;SDS011;40076;52.354;4.970;2023-05-07T02:30:42;26.48;;;22.55;;
54171;SDS011;40076;52.354;4.970;2023-05-07T02:33:13;26.13;;;22.38;;
54171;SDS011;40076;52.354;4.970;2023-05-07T02:35:41;25.70;;;22.35;;
54171;SDS011;40076;52.354;4.970;2023-05-07T02:38:06;24.15;;;20.85;;
54171;SDS011;40076;52.354;4.970;2023-05-07T02:40:35;25.35;;;19.90;;
54171;SDS011;40076;52.354;4.970;2023-05-07T02:43:03;22.08;;;18.25;;
54171;SDS011;40076;52.354;4.970;2023-05-07T02:45:32;21.25;;;18.95;;
54171;SDS011;40076;52.354;4.970;2023-05-07T02:47:58;21.10;;;16.50;;
54171;SDS011;40076;52.354;4.970;2023-05-07T02:50:23;19.80;;;16.27;;
54171;SDS011;40076;52.354;4.970;2023-05-07T02:52:52;16.38;;;14.68;;
54171;SDS011;40076;52.354;4.970;2023-05-07T02:55:18;18.75;;;14.23;;
54171;SDS011;40076;52.354;4.970;2023-05-07T02:57:46;17.20;;;15.25;;
54171;SDS011;40076;52.354;4.970;2023-05-07T03:00:21;15.65;;;13.43;;
54171;SDS011;40076;52.354;4.970;2023-05-07T03:02:47;15.10;;;13.50;;
54171;SDS011;40076;52.354;4.970;2023-05-07T03:05:15;17.70;;;14.88;;
54171;SDS011;40076;52.354;4.970;2023-05-07T03:07:40;16.88;;;14.95;;
54171;SDS011;40076;52.354;4.970;2023-05-07T03:10:12;19.13;;;14.82;;
54171;SDS011;40076;52.354;4.970;2023-05-07T03:12:45;16.45;;;13.95;;
54171;SDS011;40076;52.354;4.970;2023-05-07T03:17:41;16.10;;;12.70;;
54171;SDS011;40076;52.354;4.970;2023-05-07T03:20:09;17.85;;;13.70;;
54171;SDS011;40076;52.354;4.970;2023-05-07T03:22:41;15.15;;;13.05;;
54171;SDS011;40076;52.354;4.970;2023-05-07T03:25:07;16.23;;;12.43;;
54171;SDS011;40076;52.354;4.970;2023-05-07T03:27:45;16.90;;;13.02;;
54171;SDS011;40076;52.354;4.970;2023-05-07T03:30:11;15.07;;;12.13;;
54171;SDS011;40076;52.354;4.970;2023-05-07T03:32:37;14.77;;;12.80;;
54171;SDS011;40076;52.354;4.970;2023-05-07T03:35:03;15.43;;;13.40;;
54171;SDS011;40076;52.354;4.970;2023-05-07T03:40:03;20.85;;;15.10;;
54171;SDS011;40076;52.354;4.970;2023-05-07T03:42:29;20.95;;;15.60;;
54171;SDS011;40076;52.354;4.970;2023-05-07T03:44:54;17.45;;;15.60;;
54171;SDS011;40076;52.354;4.970;2023-05-07T03:47:20;14.77;;;13.13;;
54171;SDS011;40076;52.354;4.970;2023-05-07T03:49:51;15.15;;;13.30;;
54171;SDS011;40076;52.354;4.970;2023-05-07T03:52:18;18.10;;;14.00;;
54171;SDS011;40076;52.354;4.970;2023-05-07T03:57:20;18.40;;;15.10;;
54171;SDS011;40076;52.354;4.970;2023-05-07T03:59:48;16.42;;;13.20;;
54171;SDS011;40076;52.354;4.970;2023-05-07T04:02:16;18.58;;;14.30;;
54171;SDS011;40076;52.354;4.970;2023-05-07T04:04:42;17.73;;;14.52;;
54171;SDS011;40076;52.354;4.970;2023-05-07T04:07:11;17.65;;;14.65;;
54171;SDS011;40076;52.354;4.970;2023-05-07T04:09:44;16.95;;;15.18;;
54171;SDS011;40076;52.354;4.970;2023-05-07T04:12:20;17.05;;;15.15;;
54171;SDS011;40076;52.354;4.970;2023-05-07T04:14:46;21.25;;;16.05;;
54171;SDS011;40076;52.354;4.970;2023-05-07T04:17:14;17.90;;;15.55;;
54171;SDS011;40076;52.354;4.970;2023-05-07T04:19:43;17.25;;;15.48;;
54171;SDS011;40076;52.354;4.970;2023-05-07T04:22:11;20.70;;;16.08;;
54171;SDS011;40076;52.354;4.970;2023-05-07T04:24:49;15.23;;;13.63;;
54171;SDS011;40076;52.354;4.970;2023-05-07T04:27:25;16.88;;;15.18;;
54171;SDS011;40076;52.354;4.970;2023-05-07T04:29:51;19.10;;;16.10;;
54171;SDS011;40076;52.354;4.970;2023-05-07T04:32:28;16.60;;;14.38;;
54171;SDS011;40076;52.354;4.970;2023-05-07T04:34:57;18.67;;;15.02;;
54171;SDS011;40076;52.354;4.970;2023-05-07T04:37:31;18.85;;;15.82;;
54171;SDS011;40076;52.354;4.970;2023-05-07T04:39:57;18.17;;;14.95;;
54171;SDS011;40076;52.354;4.970;2023-05-07T04:42:26;18.73;;;16.67;;
54171;SDS011;40076;52.354;4.970;2023-05-07T04:44:54;20.75;;;17.13;;
54171;SDS011;40076;52.354;4.970;2023-05-07T04:47:23;21.33;;;18.58;;
54171;SDS011;40076;52.354;4.970;2023-05-07T04:49:51;21.98;;;18.83;;
54171;SDS011;40076;52.354;4.970;2023-05-07T04:52:22;20.73;;;18.55;;
54171;SDS011;40076;52.354;4.970;2023-05-07T04:54:53;20.45;;;18.02;;
54171;SDS011;40076;52.354;4.970;2023-05-07T04:57:19;22.98;;;19.25;;
54171;SDS011;40076;52.354;4.970;2023-05-07T04:59:54;21.15;;;18.95;;
54171;SDS011;40076;52.354;4.970;2023-05-07T05:02:25;22.63;;;20.40;;
54171;SDS011;40076;52.354;4.970;2023-05-07T05:05:03;29.73;;;21.63;;
54171;SDS011;40076;52.354;4.970;2023-05-07T05:07:37;27.27;;;21.05;;
54171;SDS011;40076;52.354;4.970;2023-05-07T05:10:04;22.42;;;20.05;;
54171;SDS011;40076;52.354;4.970;2023-05-07T05:12:33;23.25;;;20.92;;
54171;SDS011;40076;52.354;4.970;2023-05-07T05:15:06;23.65;;;21.08;;
54171;SDS011;40076;52.354;4.970;2023-05-07T05:17:40;29.40;;;24.50;;
54171;SDS011;40076;52.354;4.970;2023-05-07T05:20:08;26.60;;;23.25;;
54171;SDS011;40076;52.354;4.970;2023-05-07T05:22:44;26.25;;;21.85;;
54171;SDS011;40076;52.354;4.970;2023-05-07T05:25:13;24.90;;;22.30;;
54171;SDS011;40076;52.354;4.970;2023-05-07T05:27:41;23.27;;;20.77;;
54171;SDS011;40076;52.354;4.970;2023-05-07T05:30:07;25.10;;;21.73;;
54171;SDS011;40076;52.354;4.970;2023-05-07T05:32:35;24.80;;;21.10;;
54171;SDS011;40076;52.354;4.970;2023-05-07T05:35:10;24.00;;;21.13;;
54171;SDS011;40076;52.354;4.970;2023-05-07T05:37:38;22.33;;;19.88;;
54171;SDS011;40076;52.354;4.970;2023-05-07T05:40:06;22.95;;;19.60;;
54171;SDS011;40076;52.354;4.970;2023-05-07T05:42:32;21.80;;;19.10;;
54171;SDS011;40076;52.354;4.970;2023-05-07T05:45:00;20.63;;;18.33;;
54171;SDS011;40076;52.354;4.970;2023-05-07T05:47:28;23.15;;;18.90;;
54171;SDS011;40076;52.354;4.970;2023-05-07T05:49:57;23.85;;;17.70;;
54171;SDS011;40076;52.354;4.970;2023-05-07T05:52:22;22.13;;;19.70;;
54171;SDS011;40076;52.354;4.970;2023-05-07T05:54:48;22.58;;;18.52;;
54171;SDS011;40076;52.354;4.970;2023-05-07T05:57:14;20.85;;;18.67;;
54171;SDS011;40076;52.354;4.970;2023-05-07T05:59:42;19.63;;;17.63;;
54171;SDS011;40076;52.354;4.970;2023-05-07T06:02:08;22.83;;;19.65;;
54171;SDS011;40076;52.354;4.970;2023-05-07T06:04:36;20.77;;;18.00;;
54171;SDS011;40076;52.354;4.970;2023-05-07T06:07:15;24.52;;;18.38;;
54171;SDS011;40076;52.354;4.970;2023-05-07T06:09:40;22.08;;;18.05;;
54171;SDS011;40076;52.354;4.970;2023-05-07T06:18:34;24.60;;;19.02;;
54171;SDS011;40076;52.354;4.970;2023-05-07T06:37:13;20.75;;;18.55;;
54171;SDS011;40076;52.354;4.970;2023-05-07T06:39:39;21.05;;;18.70;;
54171;SDS011;40076;52.354;4.970;2023-05-07T06:42:43;21.67;;;18.95;;
54171;SDS011;40076;52.354;4.970;2023-05-07T06:45:08;26.73;;;20.88;;
54171;SDS011;40076;52.354;4.970;2023-05-07T06:47:34;22.52;;;19.67;;
54171;SDS011;40076;52.354;4.970;2023-05-07T06:49:59;25.10;;;20.67;;
54171;SDS011;40076;52.354;4.970;2023-05-07T06:52:25;23.67;;;19.85;;
54171;SDS011;40076;52.354;4.970;2023-05-07T06:54:51;25.23;;;21.85;;
54171;SDS011;40076;52.354;4.970;2023-05-07T06:57:16;24.50;;;22.00;;
54171;SDS011;40076;52.354;4.970;2023-05-07T06:59:41;26.83;;;21.85;;
54171;SDS011;40076;52.354;4.970;2023-05-07T07:02:07;25.30;;;22.60;;
54171;SDS011;40076;52.354;4.970;2023-05-07T07:04:33;25.52;;;22.00;;
54171;SDS011;40076;52.354;4.970;2023-05-07T07:06:58;26.70;;;21.65;;
54171;SDS011;40076;52.354;4.970;2023-05-07T07:09:24;24.27;;;21.52;;
54171;SDS011;40076;52.354;4.970;2023-05-07T07:11:49;27.75;;;22.60;;
54171;SDS011;40076;52.354;4.970;2023-05-07T07:14:14;23.42;;;20.92;;
54171;SDS011;40076;52.354;4.970;2023-05-07T07:16:40;26.60;;;21.70;;
54171;SDS011;40076;52.354;4.970;2023-05-07T07:19:05;24.38;;;21.88;;
54171;SDS011;40076;52.354;4.970;2023-05-07T07:21:31;24.05;;;21.30;;
54171;SDS011;40076;52.354;4.970;2023-05-07T07:23:57;26.23;;;21.67;;
54171;SDS011;40076;52.354;4.970;2023-05-07T07:26:22;25.00;;;22.30;;
54171;SDS011;40076;52.354;4.970;2023-05-07T07:28:47;23.50;;;21.15;;
54171;SDS011;40076;52.354;4.970;2023-05-07T07:31:13;26.48;;;22.60;;
54171;SDS011;40076;52.354;4.970;2023-05-07T07:33:38;25.48;;;22.85;;
54171;SDS011;40076;52.354;4.970;2023-05-07T07:36:05;28.42;;;24.63;;
54171;SDS011;40076;52.354;4.970;2023-05-07T07:38:31;27.42;;;23.13;;
54171;SDS011;40076;52.354;4.970;2023-05-07T07:40:56;26.85;;;23.95;;
54171;SDS011;40076;52.354;4.970;2023-05-07T07:43:25;27.50;;;24.50;;
54171;SDS011;40076;52.354;4.970;2023-05-07T07:45:51;25.95;;;23.38;;
54171;SDS011;40076;52.354;4.970;2023-05-07T07:48:16;28.67;;;24.75;;
54171;SDS011;40076;52.354;4.970;2023-05-07T07:50:41;27.73;;;24.83;;
54171;SDS011;40076;52.354;4.970;2023-05-07T07:53:07;27.00;;;24.00;;
54171;SDS011;40076;52.354;4.970;2023-05-07T07:55:32;25.65;;;22.98;;
54171;SDS011;40076;52.354;4.970;2023-05-07T07:58:02;27.45;;;24.55;;
54171;SDS011;40076;52.354;4.970;2023-05-07T08:00:27;24.83;;;22.25;;
54171;SDS011;40076;52.354;4.970;2023-05-07T08:02:53;24.50;;;21.80;;
54171;SDS011;40076;52.354;4.970;2023-05-07T08:05:18;24.67;;;22.08;;
54171;SDS011;40076;52.354;4.970;2023-05-07T08:07:44;24.13;;;21.58;;
54171;SDS011;40076;52.354;4.970;2023-05-07T08:10:09;24.05;;;21.50;;
54171;SDS011;40076;52.354;4.970;2023-05-07T08:12:34;24.20;;;21.65;;
54171;SDS011;40076;52.354;4.970;2023-05-07T08:15:00;24.58;;;21.80;;
54171;SDS011;40076;52.354;4.970;2023-05-07T08:17:25;23.25;;;20.92;;
54171;SDS011;40076;52.354;4.970;2023-05-07T08:19:51;24.95;;;21.27;;
54171;SDS011;40076;52.354;4.970;2023-05-07T08:22:16;24.90;;;22.38;;
54171;SDS011;40076;52.354;4.970;2023-05-07T08:24:45;24.88;;;22.38;;
54171;SDS011;40076;52.354;4.970;2023-05-07T08:27:11;23.85;;;21.33;;
54171;SDS011;40076;52.354;4.970;2023-05-07T08:29:36;24.65;;;22.08;;
54171;SDS011;40076;52.354;4.970;2023-05-07T08:32:02;27.70;;;22.13;;
54171;SDS011;40076;52.354;4.970;2023-05-07T08:34:27;27.17;;;22.40;;
54171;SDS011;40076;52.354;4.970;2023-05-07T08:36:53;24.25;;;21.48;;
54171;SDS011;40076;52.354;4.970;2023-05-07T08:39:18;23.90;;;21.55;;
54171;SDS011;40076;52.354;4.970;2023-05-07T08:41:44;24.33;;;22.00;;
54171;SDS011;40076;52.354;4.970;2023-05-07T08:44:13;25.48;;;22.70;;
54171;SDS011;40076;52.354;4.970;2023-05-07T08:46:42;23.40;;;21.00;;
54171;SDS011;40076;52.354;4.970;2023-05-07T08:56:14;21.27;;;19.15;;
54171;SDS011;40076;52.354;4.970;2023-05-07T08:58:46;21.05;;;18.90;;
54171;SDS011;40076;52.354;4.970;2023-05-07T09:32:01;20.35;;;15.15;;
54171;SDS011;40076;52.354;4.970;2023-05-07T09:34:31;18.30;;;14.30;;
54171;SDS011;40076;52.354;4.970;2023-05-07T09:37:03;15.80;;;13.38;;
54171;SDS011;40076;52.354;4.970;2023-05-07T09:39:40;16.02;;;14.38;;
54171;SDS011;40076;52.354;4.970;2023-05-07T09:42:12;15.70;;;14.05;;
54171;SDS011;40076;52.354;4.970;2023-05-07T09:44:45;19.15;;;15.55;;
54171;SDS011;40076;52.354;4.970;2023-05-07T09:47:12;16.55;;;14.85;;
54171;SDS011;40076;52.354;4.970;2023-05-07T09:49:54;15.88;;;12.90;;
54171;SDS011;40076;52.354;4.970;2023-05-07T09:52:27;14.00;;;12.45;;
54171;SDS011;40076;52.354;4.970;2023-05-07T09:55:05;15.45;;;13.30;;
54171;SDS011;40076;52.354;4.970;2023-05-07T09:57:55;14.23;;;12.82;;
54171;SDS011;40076;52.354;4.970;2023-05-07T10:00:48;13.07;;;11.73;;
54171;SDS011;40076;52.354;4.970;2023-05-07T10:03:17;14.82;;;12.75;;
54171;SDS011;40076;52.354;4.970;2023-05-07T10:05:49;15.55;;;13.95;;
54171;SDS011;40076;52.354;4.970;2023-05-07T10:08:18;15.02;;;13.43;;
54171;SDS011;40076;52.354;4.970;2023-05-07T10:10:47;13.95;;;12.52;;
54171;SDS011;40076;52.354;4.970;2023-05-07T10:13:14;15.80;;;13.18;;
54171;SDS011;40076;52.354;4.970;2023-05-07T10:15:46;17.10;;;14.83;;
54171;SDS011;40076;52.354;4.970;2023-05-07T10:18:18;15.38;;;13.88;;
54171;SDS011;40076;52.354;4.970;2023-05-07T10:20:47;12.05;;;10.75;;
54171;SDS011;40076;52.354;4.970;2023-05-07T10:23:17;17.20;;;15.48;;
54171;SDS011;40076;52.354;4.970;2023-05-07T10:25:48;18.90;;;17.08;;
54171;SDS011;40076;52.354;4.970;2023-05-07T10:28:13;19.40;;;17.50;;
54171;SDS011;40076;52.354;4.970;2023-05-07T10:33:46;18.45;;;15.18;;
54171;SDS011;40076;52.354;4.970;2023-05-07T10:36:14;21.45;;;19.25;;
54171;SDS011;40076;52.354;4.970;2023-05-07T10:38:43;19.30;;;17.27;;
54171;SDS011;40076;52.354;4.970;2023-05-07T10:41:11;20.73;;;18.73;;
54171;SDS011;40076;52.354;4.970;2023-05-07T10:43:40;21.30;;;19.13;;
54171;SDS011;40076;52.354;4.970;2023-05-07T10:46:17;19.27;;;17.42;;
54171;SDS011;40076;52.354;4.970;2023-05-07T10:51:29;19.25;;;17.38;;
54171;SDS011;40076;52.354;4.970;2023-05-07T10:56:38;18.60;;;16.80;;
54171;SDS011;40076;52.354;4.970;2023-05-07T11:04:22;24.05;;;19.25;;
54171;SDS011;40076;52.354;4.970;2023-05-07T11:10:06;20.80;;;18.75;;
54171;SDS011;40076;52.354;4.970;2023-05-07T11:15:04;22.65;;;17.98;;
54171;SDS011;40076;52.354;4.970;2023-05-07T11:17:31;19.75;;;17.75;;
54171;SDS011;40076;52.354;4.970;2023-05-07T11:19:59;19.88;;;17.88;;
54171;SDS011;40076;52.354;4.970;2023-05-07T11:25:03;19.70;;;17.67;;
54171;SDS011;40076;52.354;4.970;2023-05-07T11:27:29;19.15;;;16.75;;
54171;SDS011;40076;52.354;4.970;2023-05-07T11:29:55;18.95;;;16.67;;
54171;SDS011;40076;52.354;4.970;2023-05-07T11:34:52;19.23;;;17.15;;
54171;SDS011;40076;52.354;4.970;2023-05-07T11:37:18;18.05;;;16.13;;
54171;SDS011;40076;52.354;4.970;2023-05-07T11:39:46;19.40;;;15.88;;
54171;SDS011;40076;52.354;4.970;2023-05-07T11:42:25;17.08;;;15.27;;
54171;SDS011;40076;52.354;4.970;2023-05-07T11:44:50;17.20;;;14.32;;
54171;SDS011;40076;52.354;4.970;2023-05-07T11:47:19;15.45;;;13.60;;
54171;SDS011;40076;52.354;4.970;2023-05-07T11:49:48;18.92;;;14.90;;
54171;SDS011;40076;52.354;4.970;2023-05-07T11:52:18;18.88;;;14.15;;
54171;SDS011;40076;52.354;4.970;2023-05-07T11:54:54;18.48;;;14.43;;
54171;SDS011;40076;52.354;4.970;2023-05-07T11:57:21;15.48;;;13.70;;
54171;SDS011;40076;52.354;4.970;2023-05-07T11:59:48;19.63;;;14.32;;
54171;SDS011;40076;52.354;4.970;2023-05-07T12:02:18;16.02;;;14.27;;
54171;SDS011;40076;52.354;4.970;2023-05-07T12:04:43;16.52;;;14.80;;
54171;SDS011;40076;52.354;4.970;2023-05-07T12:07:12;17.27;;;15.48;;
54171;SDS011;40076;52.354;4.970;2023-05-07T12:09:42;16.98;;;14.88;;
54171;SDS011;40076;52.354;4.970;2023-05-07T12:12:11;17.10;;;14.30;;
54171;SDS011;40076;52.354;4.970;2023-05-07T12:14:40;15.85;;;13.85;;
54171;SDS011;40076;52.354;4.970;2023-05-07T12:17:09;14.43;;;11.80;;
54171;SDS011;40076;52.354;4.970;2023-05-07T12:19:36;13.90;;;11.02;;
54171;SDS011;40076;52.354;4.970;2023-05-07T12:22:06;14.43;;;11.70;;
54171;SDS011;40076;52.354;4.970;2023-05-07T12:27:28;13.98;;;11.38;;
54171;SDS011;40076;52.354;4.970;2023-05-07T12:29:53;13.50;;;11.30;;
54171;SDS011;40076;52.354;4.970;2023-05-07T12:32:20;13.07;;;10.40;;
54171;SDS011;40076;52.354;4.970;2023-05-07T12:34:49;13.90;;;9.65;;
54171;SDS011;40076;52.354;4.970;2023-05-07T12:37:16;10.90;;;9.00;;
54171;SDS011;40076;52.354;4.970;2023-05-07T12:39:47;17.02;;;12.85;;
54171;SDS011;40076;52.354;4.970;2023-05-07T12:42:16;16.50;;;13.77;;
54171;SDS011;40076;52.354;4.970;2023-05-07T12:48:01;21.17;;;18.48;;
54171;SDS011;40076;52.354;4.970;2023-05-07T12:50:36;19.77;;;16.98;;
54171;SDS011;40076;52.354;4.970;2023-05-07T12:53:10;18.90;;;16.95;;
54171;SDS011;40076;52.354;4.970;2023-05-07T12:55:47;20.95;;;17.33;;
54171;SDS011;40076;52.354;4.970;2023-05-07T12:58:22;17.95;;;15.68;;
54171;SDS011;40076;52.354;4.970;2023-05-07T13:00:58;18.17;;;15.02;;
54171;SDS011;40076;52.354;4.970;2023-05-07T13:07:08;14.35;;;12.65;;
54171;SDS011;40076;52.354;4.970;2023-05-07T13:12:18;14.85;;;11.73;;
54171;SDS011;40076;52.354;4.970;2023-05-07T13:14:47;15.10;;;12.18;;
54171;SDS011;40076;52.354;4.970;2023-05-07T13:17:28;15.98;;;13.65;;
54171;SDS011;40076;52.354;4.970;2023-05-07T13:20:57;17.70;;;14.15;;
54171;SDS011;40076;52.354;4.970;2023-05-07T13:23:33;17.80;;;14.82;;
54171;SDS011;40076;52.354;4.970;2023-05-07T13:25:59;19.02;;;15.02;;
54171;SDS011;40076;52.354;4.970;2023-05-07T13:28:36;19.00;;;16.88;;
54171;SDS011;40076;52.354;4.970;2023-05-07T13:31:14;18.50;;;16.50;;
54171;SDS011;40076;52.354;4.970;2023-05-07T13:34:11;20.48;;;17.65;;
54171;SDS011;40076;52.354;4.970;2023-05-07T13:37:04;19.00;;;16.88;;
54171;SDS011;40076;52.354;4.970;2023-05-07T13:43:08;18.55;;;16.65;;
54171;SDS011;40076;52.354;4.970;2023-05-07T13:45:47;18.63;;;16.17;;
54171;SDS011;40076;52.354;4.970;2023-05-07T13:48:21;20.70;;;17.90;;
54171;SDS011;40076;52.354;4.970;2023-05-07T13:51:30;20.13;;;17.05;;
54171;SDS011;40076;52.354;4.970;2023-05-07T13:54:52;17.00;;;15.05;;
54171;SDS011;40076;52.354;4.970;2023-05-07T14:05:05;19.13;;;15.45;;
54171;SDS011;40076;52.354;4.970;2023-05-07T14:07:34;18.80;;;16.38;;
54171;SDS011;40076;52.354;4.970;2023-05-07T14:10:02;17.63;;;14.85;;
54171;SDS011;40076;52.354;4.970;2023-05-07T14:12:28;19.08;;;16.10;;
54171;SDS011;40076;52.354;4.970;2023-05-07T14:14:53;19.80;;;14.30;;
54171;SDS011;40076;52.354;4.970;2023-05-07T14:17:19;17.65;;;13.27;;
54171;SDS011;40076;52.354;4.970;2023-05-07T14:19:45;14.95;;;11.38;;
54171;SDS011;40076;52.354;4.970;2023-05-07T14:22:31;15.43;;;10.25;;
54171;SDS011;40076;52.354;4.970;2023-05-07T14:24:57;11.27;;;6.97;;
54171;SDS011;40076;52.354;4.970;2023-05-07T14:27:25;13.30;;;6.15;;
54171;SDS011;40076;52.354;4.970;2023-05-07T14:29:50;14.05;;;6.88;;
54171;SDS011;40076;52.354;4.970;2023-05-07T14:32:19;12.75;;;4.82;;
54171;SDS011;40076;52.354;4.970;2023-05-07T14:34:45;8.77;;;4.15;;
54171;SDS011;40076;52.354;4.970;2023-05-07T14:37:14;7.15;;;2.75;;
54171;SDS011;40076;52.354;4.970;2023-05-07T14:39:40;4.35;;;2.20;;
54171;SDS011;40076;52.354;4.970;2023-05-07T14:42:05;7.82;;;2.58;;
54171;SDS011;40076;52.354;4.970;2023-05-07T14:44:32;12.70;;;4.00;;
54171;SDS011;40076;52.354;4.970;2023-05-07T14:46:59;15.48;;;5.20;;
54171;SDS011;40076;52.354;4.970;2023-05-07T14:49:40;12.50;;;5.68;;
54171;SDS011;40076;52.354;4.970;2023-05-07T14:52:06;12.85;;;6.50;;
54171;SDS011;40076;52.354;4.970;2023-05-07T14:54:34;15.23;;;6.50;;
54171;SDS011;40076;52.354;4.970;2023-05-07T14:57:00;10.32;;;5.43;;
54171;SDS011;40076;52.354;4.970;2023-05-07T14:59:28;10.18;;;4.63;;
54171;SDS011;40076;52.354;4.970;2023-05-07T15:01:57;9.02;;;3.88;;
54171;SDS011;40076;52.354;4.970;2023-05-07T15:04:23;10.00;;;4.13;;
54171;SDS011;40076;52.354;4.970;2023-05-07T15:07:00;9.30;;;3.67;;
54171;SDS011;40076;52.354;4.970;2023-05-07T15:09:26;8.35;;;3.70;;
54171;SDS011;40076;52.354;4.970;2023-05-07T15:11:54;9.43;;;3.80;;
54171;SDS011;40076;52.354;4.970;2023-05-07T15:14:21;6.25;;;3.20;;
54171;SDS011;40076;52.354;4.970;2023-05-07T15:16:47;7.90;;;2.58;;
54171;SDS011;40076;52.354;4.970;2023-05-07T15:19:13;5.20;;;1.80;;
54171;SDS011;40076;52.354;4.970;2023-05-07T15:21:41;6.35;;;2.22;;
54171;SDS011;40076;52.354;4.970;2023-05-07T15:24:06;4.97;;;1.67;;
54171;SDS011;40076;52.354;4.970;2023-05-07T15:26:32;5.40;;;2.08;;
54171;SDS011;40076;52.354;4.970;2023-05-07T15:28:57;6.85;;;2.20;;
54171;SDS011;40076;52.354;4.970;2023-05-07T15:31:23;4.30;;;1.85;;
54171;SDS011;40076;52.354;4.970;2023-05-07T15:33:51;4.53;;;2.08;;
54171;SDS011;40076;52.354;4.970;2023-05-07T15:36:21;6.53;;;2.13;;
54171;SDS011;40076;52.354;4.970;2023-05-07T15:38:47;5.65;;;2.40;;
54171;SDS011;40076;52.354;4.970;2023-05-07T15:41:12;4.90;;;2.10;;
54171;SDS011;40076;52.354;4.970;2023-05-07T15:43:45;3.42;;;1.60;;
54171;SDS011;40076;52.354;4.970;2023-05-07T15:46:17;5.68;;;2.05;;
54171;SDS011;40076;52.354;4.970;2023-05-07T15:48:44;4.38;;;1.77;;
54171;SDS011;40076;52.354;4.970;2023-05-07T15:51:09;4.47;;;1.63;;
54171;SDS011;40076;52.354;4.970;2023-05-07T15:53:35;6.03;;;2.13;;
54171;SDS011;40076;52.354;4.970;2023-05-07T15:56:01;8.20;;;2.50;;
54171;SDS011;40076;52.354;4.970;2023-05-07T15:58:32;5.55;;;2.20;;
54171;SDS011;40076;52.354;4.970;2023-05-07T16:00:58;6.88;;;2.60;;
54171;SDS011;40076;52.354;4.970;2023-05-07T16:03:25;4.57;;;1.80;;
54171;SDS011;40076;52.354;4.970;2023-05-07T16:05:52;5.47;;;1.60;;
54171;SDS011;40076;52.354;4.970;2023-05-07T16:08:18;4.70;;;1.40;;
54171;SDS011;40076;52.354;4.970;2023-05-07T16:10:43;6.35;;;1.85;;
54171;SDS011;40076;52.354;4.970;2023-05-07T16:13:10;2.85;;;1.40;;
54171;SDS011;40076;52.354;4.970;2023-05-07T16:15:36;4.45;;;1.67;;
54171;SDS011;40076;52.354;4.970;2023-05-07T16:18:01;4.80;;;1.80;;
54171;SDS011;40076;52.354;4.970;2023-05-07T16:20:27;4.63;;;1.38;;
54171;SDS011;40076;52.354;4.970;2023-05-07T16:22:56;3.38;;;1.40;;
54171;SDS011;40076;52.354;4.970;2023-05-07T16:25:24;5.05;;;1.52;;
54171;SDS011;40076;52.354;4.970;2023-05-07T16:27:51;3.88;;;1.27;;
54171;SDS011;40076;52.354;4.970;2023-05-07T16:33:22;4.28;;;1.98;;
54171;SDS011;40076;52.354;4.970;2023-05-07T16:35:57;4.95;;;1.90;;
54171;SDS011;40076;52.354;4.970;2023-05-07T16:38:24;3.97;;;1.73;;
54171;SDS011;40076;52.354;4.970;2023-05-07T16:40:52;4.22;;;2.08;;
54171;SDS011;40076;52.354;4.970;2023-05-07T16:43:20;3.65;;;1.83;;
54171;SDS011;40076;52.354;4.970;2023-05-07T16:45:46;4.00;;;1.50;;